Time;durP1;ratioP1;P1;durP2;ratioP2;P2;SDS_P1;SDS_P2;PMS_P1;PMS_P2;Temp;Humidity;BMP_temperature;BMP_pressure;BME280_temperature;BME280_humidity;BME280_pressure;Samples;Min_cycle;Max_cycle;Signal;HPM_P1;HPM_P2
2022/11/05 00:10:27;;;;;;;10.40;3.20;;;;;;;6.04;100.00;101358.75;5089215;28;20060;-83
2022/11/05 00:18:32;;;;;;;9.52;3.53;;;;;;;6.04;100.00;101356.13;5076344;28;20048;-80
2022/11/05 00:21:00;;;;;;;11.40;3.08;;;;;;;6.03;100.00;101357.88;5030420;28;20055;-82
2022/11/05 00:26:16;;;;;;;9.77;3.63;;;;;;;6.03;100.00;101364.81;5083798;28;20169;-82
2022/11/05 00:28:44;;;;;;;7.13;3.00;;;;;;;6.02;100.00;101361.31;5076143;28;20050;-82
2022/11/05 00:31:13;;;;;;;10.50;3.22;;;;;;;6.00;100.00;101369.97;5062304;28;20708;-82
2022/11/05 00:33:42;;;;;;;9.43;3.60;;;;;;;5.99;100.00;101370.78;5083617;28;20314;-82
2022/11/05 00:36:11;;;;;;;13.00;3.53;;;;;;;5.99;100.00;101365.56;5107732;27;20078;-82
2022/11/05 00:38:42;;;;;;;8.25;3.00;;;;;;;5.98;100.00;101369.03;5067722;28;20400;-82
2022/11/05 00:41:10;;;;;;;10.40;3.53;;;;;;;5.96;100.00;101363.75;5086836;28;20036;-82
2022/11/05 00:46:25;;;;;;;9.10;3.17;;;;;;;5.93;100.00;101370.56;5075807;28;20153;-82
2022/11/05 00:51:44;;;;;;;8.10;3.05;;;;;;;5.86;100.00;101375.63;5096030;28;20048;-83
2022/11/05 00:54:12;;;;;;;10.82;2.95;;;;;;;5.84;100.00;101377.31;5089970;27;20048;-82
2022/11/05 00:56:41;;;;;;;13.70;4.07;;;;;;;5.84;100.00;101371.16;5074708;28;20040;-81
2022/11/05 00:59:09;;;;;;;5.18;2.72;;;;;;;5.83;100.00;101367.69;5087918;28;20054;-82
2022/11/05 01:01:37;;;;;;;9.15;4.20;;;;;;;5.84;100.00;101368.56;5111608;28;20047;-82
2022/11/05 01:04:06;;;;;;;12.60;3.80;;;;;;;5.82;100.00;101363.31;5027722;28;20051;-82
2022/11/05 01:06:34;;;;;;;9.25;3.08;;;;;;;5.82;100.00;101368.53;5059065;28;20050;-82
2022/11/05 01:09:03;;;;;;;5.32;3.47;;;;;;;5.81;100.00;101364.13;5077889;27;20042;-82
2022/11/05 01:11:35;;;;;;;13.00;3.33;;;;;;;5.80;100.00;101371.94;5076372;28;20044;-81
2022/11/05 01:14:08;;;;;;;9.43;2.70;;;;;;;5.79;100.00;101375.41;5074144;28;20043;-81
2022/11/05 01:16:38;;;;;;;11.57;3.08;;;;;;;5.78;100.00;101369.25;5074112;28;20609;-81
2022/11/05 01:19:09;;;;;;;13.48;3.20;;;;;;;5.77;100.00;101377.97;5029924;28;20044;-81
2022/11/05 01:21:37;;;;;;;8.07;2.60;;;;;;;5.78;100.00;101376.22;5092850;28;20263;-81
2022/11/05 01:24:09;;;;;;;8.80;2.97;;;;;;;5.73;100.00;101378.72;5085907;28;20040;-83
2022/11/05 01:26:37;;;;;;;7.55;3.50;;;;;;;5.70;100.00;101383.84;5052878;28;20044;-82
2022/11/05 01:29:06;;;;;;;12.68;3.22;;;;;;;5.69;100.00;101379.47;5088235;28;20066;-82
2022/11/05 01:31:35;;;;;;;9.10;3.70;;;;;;;5.69;100.00;101381.16;5056716;28;20317;-82
2022/11/05 01:34:03;;;;;;;6.38;2.63;;;;;;;5.66;100.00;101381.97;5039167;28;20039;-82
2022/11/05 01:36:31;;;;;;;14.02;3.20;;;;;;;5.64;100.00;101391.50;5090782;28;20040;-82
2022/11/05 01:39:00;;;;;;;10.80;3.35;;;;;;;5.65;100.00;101390.63;5084513;28;20063;-82
2022/11/05 01:41:29;;;;;;;8.63;3.25;;;;;;;5.65;100.00;101388.00;5067211;28;20032;-82
2022/11/05 01:43:58;;;;;;;11.18;3.08;;;;;;;5.64;100.00;101384.53;5083460;28;20052;-82
2022/11/05 01:46:35;;;;;;;9.02;2.80;;;;;;;5.63;100.00;101395.84;5073122;28;20051;-82
2022/11/05 01:49:17;;;;;;;10.05;3.03;;;;;;;5.62;100.00;101393.16;5053148;27;24827;-82
2022/11/05 01:51:45;;;;;;;8.35;3.15;;;;;;;5.60;100.00;101387.88;5082876;28;20055;-82
2022/11/05 01:54:19;;;;;;;8.13;3.10;;;;;;;5.60;100.00;101381.78;5065581;27;20172;-81
2022/11/05 01:56:54;;;;;;;11.00;4.55;;;;;;;5.60;100.00;101389.63;5102912;28;20052;-82
2022/11/05 01:59:29;;;;;;;11.73;3.50;;;;;;;5.60;100.00;101384.38;5085406;28;20051;-82
2022/11/05 02:02:00;;;;;;;12.60;3.50;;;;;;;5.60;100.00;101381.78;5060514;28;20056;-82
2022/11/05 02:04:39;;;;;;;7.18;3.17;;;;;;;5.61;100.00;101379.22;5052425;28;20051;-81
2022/11/05 02:07:09;;;;;;;15.40;3.53;;;;;;;5.60;100.00;101385.28;5072085;28;20044;-82
2022/11/05 02:09:54;;;;;;;12.20;3.70;;;;;;;5.60;100.00;101390.50;5085255;28;20042;-82
2022/11/05 02:12:27;;;;;;;10.10;3.05;;;;;;;5.62;100.00;101382.72;5091742;28;20052;-81
2022/11/05 02:14:57;;;;;;;5.85;3.17;;;;;;;5.60;100.00;101379.16;5057048;28;20048;-82
2022/11/05 02:17:41;;;;;;;13.07;3.63;;;;;;;5.59;100.00;101386.09;5096301;28;20066;-81
2022/11/05 02:20:31;;;;;;;10.32;3.20;;;;;;;5.60;100.00;101381.78;5031656;28;20289;-81
2022/11/05 02:23:27;;;;;;;9.05;3.15;;;;;;;5.61;100.00;101380.91;5074263;28;20054;-81
2022/11/05 02:26:01;;;;;;;5.70;2.47;;;;;;;5.61;100.00;101389.69;5074512;28;20056;-81
2022/11/05 02:28:57;;;;;;;7.55;3.28;;;;;;;5.61;100.00;101394.00;5083449;28;20040;-81
2022/11/05 02:31:46;;;;;;;10.93;3.15;;;;;;;5.61;100.00;101391.38;5072052;28;20055;-81
2022/11/05 02:34:39;;;;;;;10.20;3.20;;;;;;;5.61;100.00;101386.16;5081601;28;20048;-81
2022/11/05 02:37:37;;;;;;;11.80;3.17;;;;;;;5.60;100.00;101392.22;5069627;28;20043;-81
2022/11/05 02:40:16;;;;;;;11.10;3.08;;;;;;;5.58;100.00;101388.69;5083869;28;20058;-81
2022/11/05 02:42:57;;;;;;;4.97;2.78;;;;;;;5.57;100.00;101382.53;5071678;28;20031;-82
2022/11/05 02:45:39;;;;;;;;;;;;;;;5.55;100.00;101380.72;5057051;28;20044;-81
2022/11/05 02:48:28;;;;;;;6.10;2.42;;;;;;;5.53;100.00;101383.28;5099228;28;20412;-81
2022/11/05 02:51:03;;;;;;;8.25;2.88;;;;;;;5.53;100.00;101385.03;5075979;28;20138;-81
2022/11/05 02:53:58;;;;;;;9.02;2.58;;;;;;;5.54;100.00;101386.78;5091903;28;20044;-81
2022/11/05 02:56:31;;;;;;;7.40;2.10;;;;;;;5.54;100.00;101386.78;5068824;28;20048;-81
2022/11/05 02:58:59;;;;;;;11.18;2.78;;;;;;;5.56;100.00;101385.13;5087322;28;20130;-81
2022/11/05 03:01:28;;;;;;;9.48;3.10;;;;;;;5.59;100.00;101382.59;5087763;28;20036;-82
2022/11/05 03:03:59;;;;;;;6.55;2.38;;;;;;;5.60;100.00;101382.66;5079642;28;20246;-81
2022/11/05 03:06:55;;;;;;;9.45;2.75;;;;;;;5.63;100.00;101380.16;5079850;28;20047;-81
2022/11/05 03:09:23;;;;;;;6.80;2.22;;;;;;;5.64;100.00;101391.50;5097175;28;20413;-81
2022/11/05 03:12:16;;;;;;;12.77;2.42;;;;;;;5.64;100.00;101389.75;5086579;28;20044;-82
2022/11/05 03:15:22;;;;;;;17.45;2.97;;;;;;;5.65;100.00;101390.63;5058858;28;20437;-81
2022/11/05 03:18:21;;;;;;;17.40;2.58;;;;;;;5.64;100.00;101383.66;5069220;28;20040;-82
2022/11/05 03:21:04;;;;;;;8.38;2.45;;;;;;;5.63;100.00;101384.47;5068683;28;20397;-82
2022/11/05 03:24:07;;;;;;;4.55;1.67;;;;;;;5.62;100.00;101382.72;5054273;28;20497;-81
2022/11/05 03:26:47;;;;;;;6.22;2.40;;;;;;;5.60;100.00;101374.81;5061209;28;20052;-83
2022/11/05 03:29:24;;;;;;;5.70;2.53;;;;;;;5.59;100.00;101375.63;5065015;28;20044;-84
2022/11/05 03:31:55;;;;;;;7.32;2.50;;;;;;;5.58;100.00;101375.63;5083169;28;20056;-82
2022/11/05 03:34:34;;;;;;;6.28;2.58;;;;;;;5.58;100.00;101379.09;5086551;28;20043;-82
2022/11/05 03:37:05;;;;;;;3.35;2.00;;;;;;;5.57;100.00;101386.91;5093308;28;20066;-82
2022/11/05 03:39:44;;;;;;;9.90;2.72;;;;;;;5.56;100.00;101382.53;5033815;28;20051;-83
2022/11/05 03:42:17;;;;;;;5.72;2.08;;;;;;;5.55;100.00;101397.28;5091653;28;20066;-82
2022/11/05 03:44:51;;;;;;;8.90;2.60;;;;;;;5.52;100.00;101389.38;5075813;28;20036;-83
2022/11/05 03:47:34;;;;;;;8.20;2.17;;;;;;;5.54;100.00;101392.00;5106373;28;20055;-81
2022/11/05 03:50:12;;;;;;;3.50;1.90;;;;;;;5.51;100.00;101395.44;5074001;28;20298;-81
2022/11/05 03:52:58;;;;;;;8.75;3.25;;;;;;;5.49;100.00;101397.09;5110481;28;20039;-82
2022/11/05 03:55:33;;;;;;;11.85;2.28;;;;;;;5.47;100.00;101393.56;5053889;28;20044;-81
2022/11/05 03:58:04;;;;;;;5.38;2.20;;;;;;;5.47;100.00;101401.41;5063079;28;20041;-81
2022/11/05 04:00:34;;;;;;;8.18;2.20;;;;;;;5.44;100.00;101396.06;5092377;28;20065;-81
2022/11/05 04:03:03;;;;;;;9.67;3.07;;;;;;;5.43;100.00;101395.19;5100751;28;20043;-81
2022/11/05 04:05:31;;;;;;;9.90;2.22;;;;;;;5.42;100.00;101401.22;5066334;28;20281;-81
2022/11/05 04:13:34;;;;;;;7.72;2.40;;;;;;;5.44;100.00;101402.19;5046812;28;20044;-82
2022/11/05 04:18:50;;;;;;;5.70;2.20;;;;;;;5.46;100.00;101399.59;5095794;28;20485;-82
2022/11/05 04:24:08;;;;;;;6.05;2.15;;;;;;;5.50;100.00;101411.06;5070633;28;20078;-81
2022/11/05 04:26:39;;;;;;;5.95;2.22;;;;;;;5.51;100.00;101412.84;5035062;28;20051;-82
2022/11/05 04:31:56;;;;;;;5.03;1.90;;;;;;;5.54;100.00;101418.16;5071992;28;20036;-82
2022/11/05 04:34:24;;;;;;;3.03;1.80;;;;;;;5.55;100.00;101407.75;5057016;28;20486;-82
2022/11/05 04:36:53;;;;;;;6.97;1.83;;;;;;;5.57;100.00;101408.69;5049275;28;20044;-81
2022/11/05 04:39:21;;;;;;;3.53;1.92;;;;;;;5.58;100.00;101401.75;5063587;28;20037;-82
2022/11/05 04:41:49;;;;;;;3.75;1.92;;;;;;;5.58;100.00;101405.25;5059795;28;20040;-82
2022/11/05 04:44:18;;;;;;;7.47;2.33;;;;;;;5.58;100.00;101401.75;5077595;28;20052;-81
2022/11/05 04:46:46;;;;;;;8.02;1.67;;;;;;;5.57;100.00;101406.06;5070285;28;20036;-82
2022/11/05 04:49:14;;;;;;;6.50;2.47;;;;;;;5.56;100.00;101404.31;5052615;28;20036;-81
2022/11/05 04:51:43;;;;;;;8.23;2.33;;;;;;;5.57;100.00;101410.41;5076997;28;20054;-82
2022/11/05 04:54:11;;;;;;;5.10;2.00;;;;;;;5.55;100.00;101404.25;5066625;28;20052;-82
2022/11/05 04:56:40;;;;;;;7.53;2.25;;;;;;;5.55;100.00;101412.09;5053741;28;20047;-82
2022/11/05 04:59:09;;;;;;;4.07;2.25;;;;;;;5.54;100.00;101412.94;5091176;28;20269;-82
2022/11/05 05:01:37;;;;;;;10.80;2.28;;;;;;;5.53;100.00;101401.59;5079879;28;20412;-82
2022/11/05 05:04:06;;;;;;;5.57;2.38;;;;;;;5.54;100.00;101418.16;5063680;28;20046;-82
2022/11/05 05:06:37;;;;;;;6.35;2.38;;;;;;;5.54;100.00;101413.84;5086243;28;20048;-82
2022/11/05 05:09:05;;;;;;;6.80;2.08;;;;;;;5.54;100.00;101416.44;5077291;28;20157;-82
2022/11/05 05:11:34;;;;;;;4.20;2.50;;;;;;;5.53;100.00;101412.03;5064324;28;20036;-81
2022/11/05 05:14:02;;;;;;;9.80;2.83;;;;;;;5.53;100.00;101419.00;5052868;28;20032;-81
2022/11/05 05:16:31;;;;;;;6.07;2.47;;;;;;;5.53;100.00;101413.78;5078636;28;20040;-82
2022/11/05 05:18:59;;;;;;;7.47;2.85;;;;;;;5.55;100.00;101419.94;5066417;27;20048;-82
2022/11/05 05:21:41;;;;;;;6.60;2.58;;;;;;;5.56;100.00;101411.28;5093529;28;20051;-82
2022/11/05 05:24:12;;;;;;;5.13;2.60;;;;;;;5.57;100.00;101416.53;5079957;28;20538;-82
2022/11/05 05:26:43;;;;;;;8.60;2.58;;;;;;;5.58;100.00;101420.06;5090412;28;20054;-83
2022/11/05 05:29:12;;;;;;;7.18;2.50;;;;;;;5.58;100.00;101423.56;5067212;28;20043;-81
2022/11/05 05:31:41;;;;;;;7.00;3.30;;;;;;;5.58;100.00;101428.78;5087487;28;20048;-82
2022/11/05 05:34:12;;;;;;;3.60;2.75;;;;;;;5.59;100.00;101419.19;5063403;28;20244;-82
2022/11/05 05:36:40;;;;;;;9.02;3.13;;;;;;;5.61;100.00;101425.38;5045938;28;20508;-82
2022/11/05 05:39:09;;;;;;;4.18;2.90;;;;;;;5.61;100.00;101423.66;5069708;28;20044;-81
2022/11/05 05:41:38;;;;;;;3.30;2.95;;;;;;;5.65;100.00;101427.25;5062426;28;20378;-82
2022/11/05 05:44:07;;;;;;;8.40;3.70;;;;;;;5.66;100.00;101432.53;5073160;28;20418;-82
2022/11/05 05:46:35;;;;;;;5.28;2.85;;;;;;;5.70;100.00;101435.25;5076495;28;20055;-82
2022/11/05 05:49:04;;;;;;;7.80;2.85;;;;;;;5.74;100.00;101442.34;5068654;28;20173;-82
2022/11/05 05:51:39;;;;;;;10.05;3.22;;;;;;;5.74;100.00;101427.53;5093039;28;20048;-82
2022/11/05 05:54:09;;;;;;;6.85;3.10;;;;;;;5.80;100.00;101437.31;5056905;27;20784;-81
2022/11/05 05:56:38;;;;;;;6.50;2.97;;;;;;;5.84;100.00;101436.56;5075607;28;20040;-82
2022/11/05 05:59:06;;;;;;;10.23;3.42;;;;;;;5.86;100.00;101435.78;5051597;28;20519;-82
2022/11/05 06:01:41;;;;;;;11.02;3.53;;;;;;;5.88;100.00;101448.00;5057388;28;20404;-82
2022/11/05 06:04:13;;;;;;;6.03;3.30;;;;;;;5.90;100.00;101443.72;5073325;28;20460;-82
2022/11/05 06:06:45;;;;;;;7.20;4.20;;;;;;;5.91;100.00;101445.50;5088562;28;20047;-82
2022/11/05 06:09:14;;;;;;;9.00;4.43;;;;;;;5.91;100.00;101453.34;5071005;28;20048;-81
2022/11/05 06:11:42;;;;;;;10.70;4.80;;;;;;;5.92;100.00;101444.69;5081180;28;20042;-82
2022/11/05 06:14:12;;;;;;;14.55;5.03;;;;;;;5.92;100.00;101447.28;5057971;28;20059;-81
2022/11/05 06:16:40;;;;;;;8.90;5.18;;;;;;;5.92;100.00;101436.84;5076101;28;20060;-82
2022/11/05 06:19:08;;;;;;;10.45;5.20;;;;;;;5.91;100.00;101443.78;5073843;28;20135;-81
2022/11/05 06:21:38;;;;;;;11.10;5.53;;;;;;;5.90;100.00;101449.88;5064522;28;20028;-82
2022/11/05 06:24:06;;;;;;;6.65;5.10;;;;;;;5.88;100.00;101455.88;5030977;28;20325;-81
2022/11/05 06:26:41;;;;;;;11.85;5.97;;;;;;;5.85;100.00;101452.31;5042007;28;20063;-81
2022/11/05 06:29:09;;;;;;;12.43;6.25;;;;;;;5.86;100.00;101453.22;5039314;28;20288;-82
2022/11/05 06:31:38;;;;;;;9.20;5.38;;;;;;;5.83;100.00;101448.75;5050499;28;20036;-82
2022/11/05 06:34:06;;;;;;;13.02;5.70;;;;;;;5.82;100.00;101451.31;5062050;28;20485;-80
2022/11/05 06:36:35;;;;;;;8.15;5.45;;;;;;;5.78;100.00;101450.34;5059918;28;20045;-81
2022/11/05 06:39:10;;;;;;;9.65;6.05;;;;;;;5.76;100.00;101451.13;5038770;28;20075;-82
2022/11/05 06:41:38;;;;;;;9.88;5.75;;;;;;;5.73;100.00;101461.47;5065573;28;20045;-82
2022/11/05 06:44:26;;;;;;;13.77;5.70;;;;;;;5.71;100.00;101456.22;5003437;28;20037;-82
2022/11/05 06:46:55;;;;;;;16.45;5.90;;;;;;;5.70;100.00;101457.06;5036569;28;20044;-81
2022/11/05 06:49:26;;;;;;;10.38;5.63;;;;;;;5.70;100.00;101464.91;5054314;28;20120;-80
2022/11/05 06:51:56;;;;;;;16.63;6.47;;;;;;;5.68;100.00;101463.97;5032489;28;20056;-80
2022/11/05 06:54:25;;;;;;;10.70;5.33;;;;;;;5.69;100.00;101465.75;5058176;28;20045;-79
2022/11/05 06:56:54;;;;;;;12.07;6.18;;;;;;;5.69;100.00;101476.22;5052404;28;20657;-80
2022/11/05 06:59:22;;;;;;;8.90;5.20;;;;;;;5.69;100.00;101481.44;5066142;28;20044;-79
2022/11/05 07:01:50;;;;;;;8.20;4.68;;;;;;;5.71;100.00;101477.16;5047179;28;20508;-80
2022/11/05 07:04:19;;;;;;;12.15;4.70;;;;;;;5.73;100.00;101470.25;5069020;28;20401;-80
2022/11/05 07:06:47;;;;;;;10.77;5.10;;;;;;;5.73;100.00;101483.31;5040452;28;20056;-81
2022/11/05 07:09:15;;;;;;;11.32;4.80;;;;;;;5.74;100.00;101482.47;5055924;28;20040;-80
2022/11/05 07:11:44;;;;;;;17.88;5.30;;;;;;;5.74;100.00;101485.06;5042674;28;20505;-81
2022/11/05 07:14:12;;;;;;;7.93;4.95;;;;;;;5.75;100.00;101486.88;5070513;28;20516;-80
2022/11/05 07:16:41;;;;;;;10.27;4.82;;;;;;;5.74;100.00;101495.53;5060167;28;20047;-81
2022/11/05 07:19:09;;;;;;;9.77;4.85;;;;;;;5.76;100.00;101485.13;5056854;28;20044;-80
2022/11/05 07:21:37;;;;;;;12.48;4.97;;;;;;;5.76;100.00;101483.41;5109080;28;20121;-81
2022/11/05 07:24:13;;;;;;;10.30;4.72;;;;;;;5.78;100.00;101486.06;5072932;28;20044;-80
2022/11/05 07:26:41;;;;;;;7.72;3.67;;;;;;;5.78;100.00;101481.72;5082078;28;20040;-83
2022/11/05 07:29:09;;;;;;;9.90;4.95;;;;;;;5.80;100.00;101485.31;5078983;28;20044;-80
2022/11/05 07:31:38;;;;;;;7.80;5.00;;;;;;;5.83;100.00;101476.66;5015841;28;20044;-80
2022/11/05 07:34:06;;;;;;;7.65;4.45;;;;;;;5.86;100.00;101485.50;5064619;28;20040;-81
2022/11/05 07:36:38;;;;;;;11.48;5.00;;;;;;;5.88;100.00;101479.41;5081059;28;20048;-82
2022/11/05 07:39:06;;;;;;;9.35;5.30;;;;;;;5.92;100.00;101479.56;5089678;28;21044;-82
2022/11/05 07:41:35;;;;;;;21.88;4.53;;;;;;;5.94;100.00;101482.25;5099269;28;20059;-81
2022/11/05 07:44:03;;;;;;;7.78;4.50;;;;;;;5.97;100.00;101488.50;5044282;27;20540;-80
2022/11/05 07:46:32;;;;;;;9.40;4.88;;;;;;;5.99;100.00;101485.91;5015244;28;20044;-81
2022/11/05 07:49:01;;;;;;;8.65;4.95;;;;;;;6.03;100.00;101493.00;5057323;28;20059;-82
2022/11/05 07:51:29;;;;;;;9.15;5.05;;;;;;;6.08;100.00;101486.19;5061559;28;20504;-81
2022/11/05 07:53:57;;;;;;;7.45;4.60;;;;;;;6.14;100.00;101488.13;5075345;28;20620;-82
2022/11/05 07:56:27;;;;;;;7.10;4.50;;;;;;;6.17;100.00;101481.25;5059963;28;20043;-81
2022/11/05 07:58:59;;;;;;;7.18;4.82;;;;;;;6.23;100.00;101497.16;5065189;28;20040;-79
2022/11/05 08:01:28;;;;;;;9.63;4.82;;;;;;;6.30;100.00;101497.38;5057074;28;20039;-80
2022/11/05 08:03:56;;;;;;;11.70;4.22;;;;;;;6.36;100.00;101494.94;5054317;28;20173;-81
2022/11/05 08:06:26;;;;;;;9.60;4.53;;;;;;;6.42;100.00;101495.97;5068741;28;20024;-82
2022/11/05 08:08:56;;;;;;;7.03;4.53;;;;;;;6.49;100.00;101506.66;5050490;28;20052;-81
2022/11/05 08:11:34;;;;;;;7.97;4.35;;;;;;;6.57;100.00;101507.78;5063644;28;20048;-80
2022/11/05 08:14:04;;;;;;;8.70;5.43;;;;;;;6.63;100.00;101514.09;5062256;28;20249;-81
2022/11/05 08:16:32;;;;;;;7.47;4.95;;;;;;;6.70;100.00;101504.69;5040731;28;20087;-82
2022/11/05 08:19:01;;;;;;;10.73;4.53;;;;;;;6.81;100.00;101499.75;5042133;28;20044;-81
2022/11/05 08:21:29;;;;;;;8.57;4.60;;;;;;;6.91;100.00;101508.78;5068708;28;20044;-81
2022/11/05 08:23:58;;;;;;;5.68;4.40;;;;;;;6.96;100.00;101508.06;5074251;28;20040;-79
2022/11/05 08:26:26;;;;;;;8.88;4.00;;;;;;;6.99;100.00;101513.41;5065855;28;20048;-80
2022/11/05 08:28:54;;;;;;;7.75;4.82;;;;;;;7.04;100.00;101505.66;5097414;28;20451;-80
2022/11/05 08:31:26;;;;;;;9.55;4.72;;;;;;;7.10;100.00;101515.41;5065706;28;20046;-81
2022/11/05 08:33:56;;;;;;;10.55;4.53;;;;;;;7.14;100.00;101512.03;5061860;28;20561;-81
2022/11/05 08:36:34;;;;;;;6.47;4.18;;;;;;;7.23;100.00;101520.16;5074729;28;20499;-81
2022/11/05 08:39:03;;;;;;;8.38;4.35;;;;;;;7.28;100.00;101509.78;5069135;28;20044;-81
2022/11/05 08:41:31;;;;;;;7.88;4.65;;;;;;;7.33;100.00;101513.44;5062406;28;20032;-81
2022/11/05 08:44:00;;;;;;;8.07;4.40;;;;;;;7.37;100.00;101503.09;5048445;28;20035;-80
2022/11/05 08:46:30;;;;;;;9.73;4.97;;;;;;;7.37;100.00;101500.47;5039403;28;20490;-81
2022/11/05 08:48:59;;;;;;;7.50;4.25;;;;;;;7.37;100.00;101510.03;5043559;28;20823;-80
2022/11/05 08:51:27;;;;;;;8.15;4.57;;;;;;;7.40;100.00;101505.75;5060655;28;20051;-80
2022/11/05 08:53:57;;;;;;;7.18;4.15;;;;;;;7.46;100.00;101506.78;5045559;28;20051;-80
2022/11/05 08:56:26;;;;;;;5.50;3.42;;;;;;;7.52;100.00;101515.69;5095130;28;20047;-81
2022/11/05 08:58:54;;;;;;;8.38;4.43;;;;;;;7.60;100.00;101510.66;5059316;28;20059;-81
2022/11/05 09:01:23;;;;;;;7.07;4.20;;;;;;;7.72;100.00;101516.22;5072165;28;20043;-80
2022/11/05 09:03:51;;;;;;;6.45;4.63;;;;;;;7.84;100.00;101502.50;5051543;28;20048;-80
2022/11/05 09:06:20;;;;;;;6.93;3.67;;;;;;;7.94;100.00;101508.88;5044431;28;20047;-80
2022/11/05 09:08:48;;;;;;;5.70;3.75;;;;;;;7.98;100.00;101502.88;5054840;28;20044;-81
2022/11/05 09:11:17;;;;;;;4.18;3.80;;;;;;;8.01;100.00;101505.53;5054755;28;20047;-80
2022/11/05 09:13:46;;;;;;;4.18;3.72;;;;;;;8.06;100.00;101503.06;5101955;28;20413;-81
2022/11/05 09:16:23;;;;;;;6.63;3.42;;;;;;;8.12;100.00;101496.19;5066002;28;20044;-80
2022/11/05 09:18:53;;;;;;;6.38;3.67;;;;;;;8.17;100.00;101493.69;5052066;28;20055;-80
2022/11/05 09:21:21;;;;;;;5.60;3.67;;;;;;;8.23;100.00;101496.44;5067777;28;20043;-80
2022/11/05 09:23:50;;;;;;;5.18;3.22;;;;;;;8.24;100.00;101500.88;5101516;27;20417;-80
2022/11/05 09:26:18;;;;;;;7.47;3.50;;;;;;;8.24;100.00;101497.31;5065261;28;20732;-80
2022/11/05 09:28:47;;;;;;;11.48;5.47;;;;;;;8.24;100.00;101497.31;5087139;28;20660;-79
2022/11/05 09:31:15;;;;;;;7.70;3.40;;;;;;;8.24;100.00;101502.59;5050623;28;20037;-80
2022/11/05 09:33:44;;;;;;;6.28;3.67;;;;;;;8.23;100.00;101506.06;5068115;28;20157;-80
2022/11/05 09:36:13;;;;;;;5.45;3.63;;;;;;;8.27;100.00;101497.41;5012944;28;20047;-81
2022/11/05 09:38:41;;;;;;;6.53;3.50;;;;;;;8.37;100.00;101497.66;5059501;27;20252;-80
2022/11/05 09:41:19;;;;;;;7.38;3.38;;;;;;;8.49;100.00;101499.72;5079864;28;20039;-79
2022/11/05 09:43:52;;;;;;;5.70;3.40;;;;;;;8.64;100.00;101493.00;5088005;28;20041;-79
2022/11/05 09:46:27;;;;;;;3.95;3.22;;;;;;;8.77;100.00;101495.94;5092621;28;20497;-79
2022/11/05 09:49:05;;;;;;;5.25;3.45;;;;;;;8.90;100.00;101504.97;5069606;28;20048;-79
2022/11/05 09:51:35;;;;;;;7.22;3.53;;;;;;;9.01;100.00;101499.91;5054312;28;20046;-80
2022/11/05 09:54:10;;;;;;;5.32;3.30;;;;;;;9.13;100.00;101505.41;5004026;28;20116;-81
2022/11/05 09:56:40;;;;;;;5.15;2.88;;;;;;;9.23;100.00;101503.84;4984835;28;20518;-81
2022/11/05 09:59:23;;;;;;;7.35;3.33;;;;;;;9.32;100.00;101497.88;4999728;28;20053;-79
2022/11/05 10:02:11;;;;;;;4.63;2.80;;;;;;;9.40;100.00;101504.16;5006200;28;20060;-80
2022/11/05 10:04:43;;;;;;;3.95;2.78;;;;;;;9.47;100.00;101510.41;5002296;28;20057;-79
2022/11/05 10:07:17;;;;;;;3.40;2.90;;;;;;;9.55;100.00;101516.72;5003581;28;20285;-79
2022/11/05 10:09:50;;;;;;;7.10;2.92;;;;;;;9.65;100.00;101516.00;5029366;28;20069;-82
2022/11/05 10:12:45;;;;;;;3.65;2.20;;;;;;;9.70;100.00;101516.13;5026055;28;20225;-81
2022/11/05 10:15:36;;;;;;;5.75;2.92;;;;;;;9.74;100.00;101512.66;5033029;28;20280;-81
2022/11/05 10:18:31;;;;;;;3.70;2.28;;;;;;;9.75;100.00;101515.34;5017886;28;20561;-81
2022/11/05 10:21:03;;;;;;;4.60;2.60;;;;;;;9.73;100.00;101524.03;5014746;28;20442;-83
2022/11/05 10:23:33;;;;;;;6.87;3.10;;;;;;;9.69;100.00;101528.34;4978482;28;20739;-80
2022/11/05 10:26:06;;;;;;;4.90;2.75;;;;;;;9.71;100.00;101534.53;5044933;28;20051;-81
2022/11/05 10:28:35;;;;;;;4.80;2.58;;;;;;;9.79;100.00;101531.16;5063909;28;20048;-79
2022/11/05 10:31:11;;;;;;;7.05;2.70;;;;;;;9.83;100.00;101530.34;5067905;28;20473;-79
2022/11/05 10:34:04;;;;;;;4.63;2.42;;;;;;;9.90;100.00;101532.22;5084847;27;20048;-80
2022/11/05 10:36:35;;;;;;;3.67;2.03;;;;;;;9.97;100.00;101530.59;5077198;28;20250;-81
2022/11/05 10:39:16;;;;;;;6.10;2.50;;;;;;;10.05;100.00;101532.47;5080736;28;20040;-80
2022/11/05 10:41:59;;;;;;;;;;;;;;;10.14;100.00;101532.63;5074709;28;20040;-80
2022/11/05 10:44:30;;;;;;;8.52;2.22;;;;;;;10.26;100.00;101538.94;5076694;28;20300;-79
2022/11/05 10:47:37;;;;;;;2.95;2.22;;;;;;;10.37;100.00;101533.88;5074276;28;20040;-80
2022/11/05 10:50:17;;;;;;;4.13;2.55;;;;;;;10.45;100.00;101538.41;5061670;28;20583;-79
2022/11/05 10:52:59;;;;;;;5.70;2.40;;;;;;;10.55;100.00;101526.25;5071764;28;20051;-80
2022/11/05 10:55:34;;;;;;;2.95;2.20;;;;;;;10.65;100.00;101529.91;5092520;28;20047;-79
2022/11/05 10:58:09;;;;;;;6.68;2.83;;;;;;;10.80;100.00;101529.22;5074652;28;20515;-79
2022/11/05 11:00:38;;;;;;;2.22;1.77;;;;;;;10.85;100.00;101531.06;5085059;28;20046;-79
2022/11/05 11:03:42;;;;;;;3.55;2.20;;;;;;;10.91;100.00;101524.97;5065398;28;20345;-79
2022/11/05 11:06:26;;;;;;;5.20;2.15;;;;;;;11.03;100.00;101517.19;5087655;28;20062;-80
2022/11/05 11:08:56;;;;;;;5.47;2.20;;;;;;;11.11;100.00;101522.56;5062133;27;20036;-79
2022/11/05 11:11:33;;;;;;;5.15;2.08;;;;;;;11.19;100.00;101523.56;5090948;28;20051;-79
2022/11/05 11:14:18;;;;;;;4.53;2.00;;;;;;;11.22;100.00;101528.84;5077082;28;20192;-79
2022/11/05 11:16:56;;;;;;;5.90;2.50;;;;;;;11.22;100.00;101523.56;5079565;28;20548;-79
2022/11/05 11:19:33;;;;;;;5.65;2.00;;;;;;;11.24;100.00;101526.25;5054243;28;20043;-79
2022/11/05 11:22:02;;;;;;;8.48;2.20;;;;;;;11.23;100.00;101524.50;5071578;28;20157;-80
2022/11/05 11:24:36;;;;;;;3.67;2.50;;;;;;;11.27;100.00;101526.28;5032897;28;20040;-80
2022/11/05 11:27:32;;;;;;;4.53;1.77;;;;;;;11.34;100.00;101527.22;5071786;28;20512;-80
2022/11/05 11:30:03;;;;;;;2.40;1.75;;;;;;;11.35;100.00;101523.72;5062009;28;20134;-79
2022/11/05 11:32:36;;;;;;;5.75;2.00;;;;;;;11.35;100.00;101521.97;5089603;28;20050;-80
2022/11/05 11:35:07;;;;;;;3.97;1.90;;;;;;;11.37;100.00;101528.13;5041463;28;20047;-79
2022/11/05 11:37:41;;;;;;;3.47;1.67;;;;;;;11.39;100.00;101520.25;5068755;27;20028;-80
2022/11/05 11:40:19;;;;;;;2.95;1.70;;;;;;;11.40;100.00;101519.38;5062163;28;20051;-80
2022/11/05 11:42:54;;;;;;;5.15;2.30;;;;;;;11.42;100.00;101518.53;5069506;28;20153;-79
2022/11/05 11:45:26;;;;;;;3.47;2.22;;;;;;;11.41;100.00;101518.50;5087070;28;20040;-80
2022/11/05 11:47:56;;;;;;;2.70;1.90;;;;;;;11.36;100.00;101520.19;5046707;28;20056;-79
2022/11/05 11:50:38;;;;;;;4.57;1.88;;;;;;;11.35;100.00;101524.59;5064855;28;20040;-80
2022/11/05 11:53:19;;;;;;;8.40;2.08;;;;;;;11.41;100.00;101515.88;5091210;27;20039;-79
2022/11/05 11:55:53;;;;;;;9.70;1.73;;;;;;;11.46;100.00;101522.09;5052195;28;20377;-79
2022/11/05 11:58:34;;;;;;;7.13;2.17;;;;;;;11.51;100.00;101521.28;5068340;28;20039;-79
2022/11/05 12:01:36;;;;;;;6.18;1.90;;;;;;;11.56;100.00;101517.78;5063645;28;20048;-79
2022/11/05 12:04:11;;;;;;;5.72;2.00;;;;;;;11.62;100.00;101513.44;5080665;28;20504;-79
2022/11/05 12:07:11;;;;;;;6.00;2.47;;;;;;;11.75;100.00;101518.84;5075784;28;20063;-79
2022/11/05 12:09:46;;;;;;;5.88;2.30;;;;;;;11.79;100.00;101520.63;5043350;28;20475;-79
2022/11/05 12:12:21;;;;;;;6.50;2.10;;;;;;;11.75;100.00;101519.72;5089452;28;20404;-79
2022/11/05 12:15:14;;;;;;;7.75;2.20;;;;;;;11.69;100.00;101512.63;5074851;28;20055;-78
2022/11/05 12:17:52;;;;;;;4.90;1.77;;;;;;;11.65;100.00;101512.59;5075969;28;20043;-79
2022/11/05 12:20:41;;;;;;;9.00;2.58;;;;;;;11.67;100.00;101519.66;5088570;28;20059;-79
2022/11/05 12:23:38;;;;;;;7.28;2.25;;;;;;;11.67;100.00;101516.13;5067905;28;20044;-79
2022/11/05 12:26:50;;;;;;;3.70;1.85;;;;;;;11.66;100.00;101517.00;5052263;28;20348;-79
2022/11/05 12:30:06;;;;;;;3.22;1.25;;;;;;;11.61;100.00;101509.03;5078152;28;20502;-80